createdAt,value
2023-02-03T00:01:22.855Z,101581.16
2023-02-03T00:03:49.466Z,101582.03
2023-02-03T00:06:16.097Z,101578.53
2023-02-03T00:08:42.492Z,101581.97
2023-02-03T00:11:09.064Z,101583.72
2023-02-03T00:13:35.893Z,101580.25
2023-02-03T00:16:02.391Z,101568.16
2023-02-03T00:18:28.881Z,101569.00
2023-02-03T00:20:55.306Z,101570.78
2023-02-03T00:23:21.727Z,101562.13
2023-02-03T00:25:48.129Z,101556.09
2023-02-03T00:28:14.653Z,101558.69
2023-02-03T00:30:41.157Z,101557.00
2023-02-03T00:33:07.542Z,101550.09
2023-02-03T00:35:33.894Z,101549.25
2023-02-03T00:38:00.328Z,101551.00
2023-02-03T00:40:27.788Z,101538.88
2023-02-03T00:42:54.985Z,101543.22
2023-02-03T00:45:21.601Z,101538.06
2023-02-03T00:47:48.019Z,101525.06
2023-02-03T00:50:14.495Z,101525.94
2023-02-03T00:52:41.087Z,101516.41
2023-02-03T00:55:08.140Z,101519.00
2023-02-03T00:57:34.504Z,101515.50
2023-02-03T01:00:00.934Z,101512.06
2023-02-03T01:02:27.584Z,101503.38
2023-02-03T01:04:54.088Z,101506.81
2023-02-03T01:07:20.517Z,101499.00
2023-02-03T01:09:48.471Z,101486.00
2023-02-03T01:12:15.134Z,101486.00
2023-02-03T01:14:41.521Z,101487.69
2023-02-03T01:17:09.336Z,101472.94
2023-02-03T01:19:35.759Z,101468.59
2023-02-03T01:22:02.253Z,101472.91
2023-02-03T01:24:30.649Z,101473.75
2023-02-03T01:26:57.048Z,101458.97
2023-02-03T01:29:23.580Z,101451.19
2023-02-03T01:31:50.216Z,101448.56
2023-02-03T01:34:18.369Z,101445.06
2023-02-03T01:36:46.668Z,101438.97
2023-02-03T01:39:13.220Z,101433.75
2023-02-03T01:41:40.536Z,101413.78
2023-02-03T01:44:43.966Z,101408.56
2023-02-03T01:47:40.143Z,101398.13
2023-02-03T01:50:22.993Z,101381.66
2023-02-03T01:52:54.589Z,101373.00
2023-02-03T01:55:25.999Z,101392.94
2023-02-03T01:58:14.933Z,101395.56
2023-02-03T02:00:42.176Z,101393.78
2023-02-03T02:03:09.184Z,101398.97
2023-02-03T02:05:45.479Z,101386.00
2023-02-03T02:08:13.715Z,101384.25
2023-02-03T02:10:40.188Z,101385.09
2023-02-03T02:13:06.914Z,101391.16
2023-02-03T02:15:40.783Z,101402.47
2023-02-03T02:18:20.483Z,101405.06
2023-02-03T02:21:01.372Z,101392.03
2023-02-03T02:24:03.509Z,101380.75
2023-02-03T02:26:50.621Z,101368.59
2023-02-03T02:29:50.109Z,101372.97
2023-02-03T02:32:42.646Z,101371.22
2023-02-03T02:35:34.104Z,101363.41
2023-02-03T02:38:06.775Z,101373.81
2023-02-03T02:40:46.067Z,101369.47
2023-02-03T02:43:22.577Z,101357.34
2023-02-03T02:46:28.969Z,101364.28
2023-02-03T02:49:04.598Z,101369.47
2023-02-03T02:51:32.225Z,101366.84
2023-02-03T02:54:05.603Z,101369.44
2023-02-03T02:56:34.289Z,101353.81
2023-02-03T02:59:03.944Z,101355.56
2023-02-03T03:01:30.677Z,101340.78
2023-02-03T03:03:58.605Z,101326.91
2023-02-03T03:06:52.144Z,101338.19
2023-02-03T03:09:23.538Z,101329.53
2023-02-03T03:12:02.192Z,101330.38
2023-02-03T03:14:32.279Z,101323.41
2023-02-03T03:17:06.208Z,101305.97
2023-02-03T03:19:37.221Z,101312.94
2023-02-03T03:22:07.408Z,101306.84
2023-02-03T03:24:41.564Z,101287.78
2023-02-03T03:27:24.310Z,101305.97
2023-02-03T03:29:56.422Z,101287.75
2023-02-03T03:32:23.201Z,101294.69
2023-02-03T03:34:50.605Z,101279.97
2023-02-03T03:37:30.698Z,101285.16
2023-02-03T03:39:59.757Z,101260.00
2023-02-03T03:42:40.809Z,101267.81
2023-02-03T03:45:14.818Z,101262.56
2023-02-03T03:47:55.636Z,101271.31
2023-02-03T03:50:27.995Z,101270.44
2023-02-03T03:52:57.408Z,101268.66
2023-02-03T03:55:27.564Z,101281.63
2023-02-03T03:58:02.463Z,101267.72
2023-02-03T04:00:32.094Z,101279.88
2023-02-03T04:03:05.003Z,101275.59
2023-02-03T04:05:33.284Z,101262.59
2023-02-03T04:08:00.935Z,101262.59
2023-02-03T04:10:31.664Z,101268.69
2023-02-03T04:12:58.554Z,101257.38
2023-02-03T04:15:25.173Z,101247.81
2023-02-03T04:17:51.618Z,101262.59
2023-02-03T04:20:18.305Z,101242.63
2023-02-03T04:22:46.357Z,101238.22
2023-02-03T04:25:12.912Z,101235.59
2023-02-03T04:27:39.347Z,101226.03
2023-02-03T04:30:06.447Z,101220.91
2023-02-03T04:32:34.073Z,101210.53
2023-02-03T04:35:00.513Z,101211.44
2023-02-03T04:37:27.560Z,101207.94
2023-02-03T04:39:55.357Z,101216.59
2023-02-03T04:42:23.179Z,101208.81
2023-02-03T04:44:49.971Z,101220.16
2023-02-03T04:47:17.807Z,101224.44
2023-02-03T04:49:44.474Z,101217.44
2023-02-03T04:52:12.093Z,101213.03
2023-02-03T04:54:38.640Z,101212.28
2023-02-03T04:57:05.557Z,101210.50
2023-02-03T04:59:32.305Z,101201.81
2023-02-03T05:01:58.807Z,101195.72
2023-02-03T05:04:25.280Z,101195.75
2023-02-03T05:06:51.681Z,101195.72
2023-02-03T05:09:18.225Z,101181.84
2023-02-03T05:11:47.303Z,101182.72
2023-02-03T05:14:13.657Z,101173.22
2023-02-03T05:16:40.115Z,101157.63
2023-02-03T05:19:06.553Z,101145.44
2023-02-03T05:21:33.725Z,101146.25
2023-02-03T05:24:00.390Z,101127.25
2023-02-03T05:26:26.872Z,101153.25
2023-02-03T05:28:55.013Z,101151.50
2023-02-03T05:31:22.562Z,101148.09
2023-02-03T05:33:48.982Z,101143.75
2023-02-03T05:36:15.369Z,101146.38
2023-02-03T05:38:42.522Z,101130.81
2023-02-03T05:41:33.577Z,101138.63
2023-02-03T05:43:59.961Z,101153.38
2023-02-03T05:46:26.345Z,101146.41
2023-02-03T05:48:52.808Z,101135.97
2023-02-03T05:51:19.207Z,101127.31
2023-02-03T05:53:45.703Z,101138.59
2023-02-03T05:56:12.057Z,101135.06
2023-02-03T05:58:38.662Z,101136.72
2023-02-03T06:01:05.049Z,101138.41
2023-02-03T06:03:31.598Z,101127.97
2023-02-03T06:05:58.926Z,101121.88
2023-02-03T06:08:28.501Z,101121.94
2023-02-03T06:11:00.188Z,101099.47
2023-02-03T06:13:27.878Z,101113.41
2023-02-03T06:15:55.303Z,101103.00
2023-02-03T06:18:21.692Z,101096.06
2023-02-03T06:20:48.056Z,101087.41
2023-02-03T06:23:14.680Z,101089.19
2023-02-03T06:25:41.050Z,101074.47
2023-02-03T06:28:07.505Z,101059.72
2023-02-03T06:30:33.970Z,101072.66
2023-02-03T06:33:00.430Z,101069.97
2023-02-03T06:35:26.899Z,101070.00
2023-02-03T06:37:53.390Z,101070.88
2023-02-03T06:40:20.074Z,101068.25
2023-02-03T06:42:47.503Z,101063.91
2023-02-03T06:45:15.146Z,101065.69
2023-02-03T06:47:42.373Z,101060.41
2023-02-03T06:50:10.142Z,101054.28
2023-02-03T06:52:36.602Z,101052.50
2023-02-03T06:55:04.448Z,101043.88
2023-02-03T06:57:30.999Z,101040.41
2023-02-03T06:59:57.543Z,101052.50
2023-02-03T07:02:24.023Z,101029.06
2023-02-03T07:04:50.515Z,101039.44
2023-02-03T07:07:17.242Z,101037.66
2023-02-03T07:09:43.827Z,101035.81
2023-02-03T07:12:10.213Z,101046.28
2023-02-03T07:14:36.691Z,101038.44
2023-02-03T07:17:03.205Z,101027.97
2023-02-03T07:19:29.753Z,101038.41
2023-02-03T07:21:56.131Z,101032.38
2023-02-03T07:24:22.528Z,101028.84
2023-02-03T07:26:48.920Z,101041.00
2023-02-03T07:29:15.289Z,101025.31
2023-02-03T07:31:41.776Z,101040.03
2023-02-03T07:34:08.182Z,101011.34
2023-02-03T07:36:34.634Z,101043.47
2023-02-03T07:39:01.078Z,101031.25
2023-02-03T07:41:27.523Z,101022.63
2023-02-03T07:43:53.895Z,101021.78
2023-02-03T07:46:20.504Z,101027.81
2023-02-03T07:48:46.899Z,101038.16
2023-02-03T07:51:13.359Z,101020.78
2023-02-03T07:53:39.721Z,101034.63
2023-02-03T07:56:06.176Z,101019.81
2023-02-03T07:58:32.749Z,101023.31
2023-02-03T08:00:59.668Z,101025.03
2023-02-03T08:03:26.175Z,101059.78
2023-02-03T08:05:53.385Z,101068.38
2023-02-03T08:08:19.766Z,101069.19
2023-02-03T08:10:46.164Z,101082.16
2023-02-03T08:13:12.714Z,101093.47
2023-02-03T08:15:39.073Z,101084.78
2023-02-03T08:18:05.711Z,101116.16
2023-02-03T08:20:32.078Z,101138.78
2023-02-03T08:22:58.563Z,101105.88
2023-02-03T08:25:24.928Z,101122.50
2023-02-03T08:27:53.177Z,101126.00
2023-02-03T08:30:19.571Z,101119.91
2023-02-03T08:32:45.962Z,101126.00
2023-02-03T08:35:12.437Z,101114.75
2023-02-03T08:37:38.977Z,101125.19
2023-02-03T08:40:06.434Z,101129.47
2023-02-03T08:42:33.079Z,101144.25
2023-02-03T08:44:59.498Z,101133.91
2023-02-03T08:47:26.559Z,101133.88
2023-02-03T08:49:53.269Z,101139.94
2023-02-03T08:52:19.850Z,101147.81
2023-02-03T08:54:46.985Z,101158.28
2023-02-03T08:57:13.762Z,101137.47
2023-02-03T08:59:42.234Z,101149.63
2023-02-03T09:02:13.306Z,101133.16
2023-02-03T09:04:39.814Z,101132.28
2023-02-03T09:07:06.246Z,101132.31
2023-02-03T09:09:35.262Z,101146.19
2023-02-03T09:12:05.335Z,101161.88
2023-02-03T09:14:33.209Z,101154.94
2023-02-03T09:17:01.229Z,101159.28
2023-02-03T09:19:27.720Z,101166.22
2023-02-03T09:21:54.123Z,101158.41
2023-02-03T09:24:20.921Z,101154.97
2023-02-03T09:26:47.272Z,101142.78
2023-02-03T09:29:13.773Z,101139.28
2023-02-03T09:31:40.210Z,101136.63
2023-02-03T09:34:06.820Z,101142.75
2023-02-03T09:36:33.609Z,101159.22
2023-02-03T09:39:00.307Z,101171.34
2023-02-03T09:41:46.004Z,101167.81
2023-02-03T09:44:34.430Z,101179.06
2023-02-03T09:47:04.871Z,101190.41
2023-02-03T09:49:42.410Z,101211.19
2023-02-03T09:52:15.033Z,101200.72
2023-02-03T09:54:56.959Z,101204.94
2023-02-03T09:57:26.664Z,101202.28
2023-02-03T09:59:55.686Z,101207.56
2023-02-03T10:02:34.253Z,101215.34
2023-02-03T10:05:25.300Z,101203.97
2023-02-03T10:08:03.397Z,101221.31
2023-02-03T10:10:42.157Z,101216.91
2023-02-03T10:13:34.497Z,101232.47
2023-02-03T10:16:15.255Z,101229.06
2023-02-03T10:18:53.111Z,101235.97
2023-02-03T10:21:41.094Z,101241.13
2023-02-03T10:24:15.622Z,101224.59
2023-02-03T10:26:42.434Z,101248.00
2023-02-03T10:29:32.831Z,101242.78
2023-02-03T10:32:00.014Z,101250.66
2023-02-03T10:34:27.726Z,101265.31
2023-02-03T10:36:56.711Z,101263.31
2023-02-03T10:39:43.948Z,101255.38
2023-02-03T10:42:12.254Z,101257.00
2023-02-03T10:44:42.666Z,101269.28
2023-02-03T10:47:23.268Z,101270.25
2023-02-03T10:49:52.460Z,101267.75
2023-02-03T10:52:31.245Z,101289.47
2023-02-03T10:54:59.378Z,101285.91
2023-02-03T10:57:28.629Z,101290.09
2023-02-03T11:00:06.246Z,101283.16
2023-02-03T11:02:32.769Z,101299.63
2023-02-03T11:05:20.980Z,101291.84
2023-02-03T11:07:48.457Z,101282.19
2023-02-03T11:10:35.528Z,101297.94
2023-02-03T11:13:13.916Z,101284.00
2023-02-03T11:15:45.627Z,101295.34
2023-02-03T11:18:27.074Z,101283.16
2023-02-03T11:20:53.499Z,101287.41
2023-02-03T11:23:23.443Z,101293.31
2023-02-03T11:25:50.580Z,101306.25
2023-02-03T11:28:17.971Z,101292.13
2023-02-03T11:30:44.594Z,101282.38
2023-02-03T11:33:18.517Z,101299.88
2023-02-03T11:35:57.749Z,101299.88
2023-02-03T11:38:30.660Z,101296.53
2023-02-03T11:41:03.351Z,101306.28
2023-02-03T11:43:30.176Z,101295.88
2023-02-03T11:46:03.300Z,101300.22
2023-02-03T11:48:35.437Z,101300.91
2023-02-03T11:51:33.394Z,101306.75
2023-02-03T11:54:11.110Z,101300.59
2023-02-03T11:56:43.373Z,101301.59
2023-02-03T11:59:47.606Z,101293.81
2023-02-03T12:02:44.042Z,101309.50
2023-02-03T12:05:19.491Z,101301.78
2023-02-03T12:08:29.095Z,101307.06
2023-02-03T12:11:03.162Z,101298.34
2023-02-03T12:13:45.487Z,101324.38
2023-02-03T12:16:48.867Z,101319.59
2023-02-03T12:19:36.190Z,101329.94
2023-02-03T12:22:35.018Z,101315.97
2023-02-03T12:25:35.688Z,101340.53
2023-02-03T12:28:27.321Z,101350.25
2023-02-03T12:31:07.502Z,101346.97
2023-02-03T12:33:58.132Z,101350.59
2023-02-03T12:36:32.859Z,101346.41
2023-02-03T12:39:06.624Z,101358.66
2023-02-03T12:41:37.930Z,101358.72
2023-02-03T12:44:15.485Z,101347.47
2023-02-03T12:46:56.251Z,101362.31
2023-02-03T12:49:33.323Z,101356.34
2023-02-03T12:52:14.250Z,101353.81
2023-02-03T12:54:47.724Z,101369.50
2023-02-03T12:57:34.397Z,101344.28
2023-02-03T13:00:10.475Z,101354.78
2023-02-03T13:03:00.598Z,101347.81
2023-02-03T13:05:38.000Z,101376.50
2023-02-03T13:08:25.263Z,101351.28
2023-02-03T13:11:08.597Z,101376.56
2023-02-03T13:13:41.917Z,101377.44
2023-02-03T13:16:11.687Z,101367.00
2023-02-03T13:18:42.512Z,101392.28
2023-02-03T13:21:12.747Z,101387.91
2023-02-03T13:23:44.627Z,101385.38
2023-02-03T13:26:35.050Z,101387.09
2023-02-03T13:29:26.888Z,101394.03
2023-02-03T13:32:10.806Z,101409.69
2023-02-03T13:34:52.600Z,101399.25
2023-02-03T13:37:55.134Z,101396.66
2023-02-03T13:40:45.180Z,101406.22
2023-02-03T13:43:23.074Z,101407.06
2023-02-03T13:45:59.619Z,101395.72
2023-02-03T13:48:29.434Z,101398.31
2023-02-03T13:51:17.627Z,101416.56
2023-02-03T13:53:46.265Z,101420.91
2023-02-03T13:56:20.324Z,101416.56
2023-02-03T13:59:25.236Z,101415.72
2023-02-03T14:01:51.922Z,101408.78
2023-02-03T14:04:47.716Z,101428.78
2023-02-03T14:07:38.003Z,101422.66
2023-02-03T14:10:13.502Z,101410.50
2023-02-03T14:12:52.051Z,101420.03
2023-02-03T14:15:23.285Z,101413.97
2023-02-03T14:18:04.060Z,101406.13
2023-02-03T14:20:39.416Z,101426.97
2023-02-03T14:23:05.702Z,101413.97
2023-02-03T14:25:40.232Z,101427.00
2023-02-03T14:28:13.186Z,101425.25
2023-02-03T14:31:06.489Z,101426.19
2023-02-03T14:33:48.226Z,101438.38
2023-02-03T14:36:37.902Z,101428.78
2023-02-03T14:39:41.294Z,101427.94
2023-02-03T14:42:17.314Z,101431.41
2023-02-03T14:45:18.574Z,101431.41
2023-02-03T14:47:59.064Z,101440.97
2023-02-03T14:50:52.188Z,101440.09
2023-02-03T14:53:41.819Z,101430.53
2023-02-03T14:56:59.323Z,101444.47
2023-02-03T14:59:36.577Z,101447.06
2023-02-03T15:02:02.974Z,101447.09
2023-02-03T15:04:29.414Z,101454.91
2023-02-03T15:06:55.898Z,101439.28
2023-02-03T15:09:45.872Z,101457.53
2023-02-03T15:12:17.906Z,101454.88
2023-02-03T15:14:44.336Z,101454.91
2023-02-03T15:17:22.275Z,101468.81
2023-02-03T15:19:48.943Z,101473.16
2023-02-03T15:22:20.193Z,101454.91
2023-02-03T15:24:46.798Z,101465.31
2023-02-03T15:27:39.278Z,101455.78
2023-02-03T15:30:21.556Z,101482.78
2023-02-03T15:33:04.711Z,101479.31
2023-02-03T15:35:34.217Z,101476.72
2023-02-03T15:38:04.667Z,101501.91
2023-02-03T15:40:45.024Z,101493.22
2023-02-03T15:43:38.052Z,101499.28
2023-02-03T15:46:30.455Z,101500.16
2023-02-03T15:49:03.533Z,101494.94
2023-02-03T15:51:39.481Z,101497.53
2023-02-03T15:54:13.963Z,101498.44
2023-02-03T15:56:44.333Z,101508.00
2023-02-03T15:59:23.881Z,101494.09
2023-02-03T16:01:51.775Z,101505.41
2023-02-03T16:04:19.290Z,101515.84
2023-02-03T16:06:48.950Z,101508.06
2023-02-03T16:09:29.317Z,101520.19
2023-02-03T16:12:14.431Z,101514.97
2023-02-03T16:14:42.172Z,101516.72
2023-02-03T16:17:26.817Z,101515.84
2023-02-03T16:20:13.231Z,101530.59
2023-02-03T16:23:04.491Z,101529.75
2023-02-03T16:25:33.583Z,101527.16
2023-02-03T16:28:22.677Z,101548.03
2023-02-03T16:31:16.334Z,101532.41
2023-02-03T16:34:08.975Z,101528.94
2023-02-03T16:36:59.504Z,101563.66
2023-02-03T16:39:45.544Z,101552.38
2023-02-03T16:42:38.648Z,101561.94
2023-02-03T16:45:33.241Z,101560.22
2023-02-03T16:48:18.381Z,101558.50
2023-02-03T16:50:58.211Z,101569.78
2023-02-03T16:53:28.506Z,101572.41
2023-02-03T16:55:57.216Z,101582.84
2023-02-03T16:58:23.815Z,101578.53
2023-02-03T17:00:52.379Z,101565.50
2023-02-03T17:03:21.503Z,101579.41
2023-02-03T17:05:49.163Z,101585.47
2023-02-03T17:08:17.040Z,101596.78
2023-02-03T17:10:44.842Z,101583.78
2023-02-03T17:13:11.868Z,101604.59
2023-02-03T17:15:43.079Z,101608.97
2023-02-03T17:18:09.911Z,101602.03
2023-02-03T17:20:36.894Z,101618.53
2023-02-03T17:23:03.936Z,101622.88
2023-02-03T17:25:33.850Z,101628.13
2023-02-03T17:28:00.411Z,101640.25
2023-02-03T17:30:28.983Z,101651.47
2023-02-03T17:32:57.574Z,101647.16
2023-02-03T17:35:25.489Z,101661.91
2023-02-03T17:37:52.883Z,101668.84
2023-02-03T17:54:06.584Z,101707.97
2023-02-03T17:56:35.445Z,101701.91
2023-02-03T17:59:03.567Z,101724.47
2023-02-03T18:01:30.321Z,101726.19
2023-02-03T18:04:02.932Z,101727.06
2023-02-03T18:06:34.973Z,101724.47
2023-02-03T18:09:06.396Z,101726.22
2023-02-03T18:11:34.356Z,101728.81
2023-02-03T18:14:02.897Z,101744.44
2023-02-03T18:16:33.048Z,101734.00
2023-02-03T18:19:03.142Z,101733.13
2023-02-03T18:21:32.188Z,101747.03
2023-02-03T18:24:01.637Z,101745.28
2023-02-03T18:26:34.415Z,101743.53
2023-02-03T18:29:01.380Z,101750.47
2023-02-03T18:31:28.276Z,101753.88
2023-02-03T18:33:55.906Z,101769.50
2023-02-03T18:36:22.311Z,101766.88
2023-02-03T18:38:48.794Z,101772.09
2023-02-03T18:41:21.830Z,101776.41
2023-02-03T18:43:49.269Z,101773.78
2023-02-03T18:46:21.848Z,101772.03
2023-02-03T18:48:48.496Z,101797.19
2023-02-03T18:51:16.524Z,101794.56
2023-02-03T18:53:45.017Z,101811.94
2023-02-03T18:56:16.263Z,101811.88
2023-02-03T18:58:42.837Z,101820.56
2023-02-03T19:01:09.782Z,101821.47
2023-02-03T19:03:37.980Z,101838.00
2023-02-03T19:06:09.368Z,101835.41
2023-02-03T19:08:35.833Z,101842.41
2023-02-03T19:11:02.289Z,101849.38
2023-02-03T19:13:28.785Z,101861.59
2023-02-03T19:15:55.222Z,101877.25
2023-02-03T19:18:21.582Z,101883.31
2023-02-03T19:20:48.060Z,101885.09
2023-02-03T19:23:14.708Z,101897.22
2023-02-03T19:25:41.146Z,101901.59
2023-02-03T19:28:14.329Z,101916.34
2023-02-03T19:30:44.045Z,101912.88
2023-02-03T19:33:10.956Z,101913.72
2023-02-03T19:35:38.460Z,101915.47
2023-02-03T19:38:05.443Z,101918.06
2023-02-03T19:40:32.004Z,101927.63
2023-02-03T19:42:58.981Z,101932.84
2023-02-03T19:45:25.337Z,101931.97
2023-02-03T19:47:51.764Z,101949.34
2023-02-03T19:50:18.250Z,101948.50
2023-02-03T19:52:44.768Z,101948.47
2023-02-03T19:55:12.113Z,101960.63
2023-02-03T19:57:38.489Z,101965.84
2023-02-03T20:00:05.397Z,101974.53
2023-02-03T20:02:39.975Z,101984.94
2023-02-03T20:05:06.848Z,101984.94
2023-02-03T20:07:33.718Z,101993.63
2023-02-03T20:10:00.911Z,101997.09
2023-02-03T20:12:27.464Z,102001.41
2023-02-03T20:14:53.918Z,101997.97
2023-02-03T20:17:20.434Z,101999.69
2023-02-03T20:19:46.822Z,102015.31
2023-02-03T20:22:13.909Z,102022.25
2023-02-03T20:24:40.340Z,102028.34
2023-02-03T20:27:06.776Z,102030.94
2023-02-03T20:29:33.215Z,102043.09
2023-02-03T20:31:59.660Z,102056.13
2023-02-03T20:34:27.365Z,102076.91
2023-02-03T20:36:58.495Z,102075.97
2023-02-03T20:39:24.889Z,102074.22
2023-02-03T20:41:51.313Z,102082.84
2023-02-03T20:44:17.682Z,102094.13
2023-02-03T20:46:44.385Z,102093.19
2023-02-03T20:49:12.717Z,102110.56
2023-02-03T20:51:39.326Z,102114.91
2023-02-03T20:54:15.464Z,102133.13
2023-02-03T20:56:41.834Z,102141.81
2023-02-03T20:59:13.114Z,102152.22
2023-02-03T21:01:39.599Z,102157.41
2023-02-03T21:04:35.083Z,102162.63
2023-02-03T21:07:10.633Z,102174.84
2023-02-03T21:09:37.434Z,102186.13
2023-02-03T21:12:10.713Z,102200.88
2023-02-03T21:14:42.572Z,102206.13
2023-02-03T21:17:21.117Z,102216.50
2023-02-03T21:19:48.057Z,102217.34
2023-02-03T21:22:25.471Z,102225.97
2023-02-03T21:24:57.308Z,102233.75
2023-02-03T21:27:34.504Z,102244.97
2023-02-03T21:30:06.178Z,102247.53
2023-02-03T21:32:38.292Z,102260.50
2023-02-03T21:35:32.084Z,102268.31
2023-02-03T21:38:03.807Z,102276.06
2023-02-03T21:40:35.168Z,102276.91
2023-02-03T21:43:03.179Z,102285.50
2023-02-03T21:45:38.951Z,102301.97
2023-02-03T21:48:22.600Z,102301.06
2023-02-03T21:50:49.059Z,102313.16
2023-02-03T21:53:15.465Z,102310.50
2023-02-03T21:55:43.044Z,102326.00
2023-02-03T21:58:32.446Z,102328.63
2023-02-03T22:01:01.795Z,102334.75
2023-02-03T22:03:29.894Z,102341.72
2023-02-03T22:06:14.945Z,102346.03
2023-02-03T22:08:46.656Z,102346.03
2023-02-03T22:11:14.581Z,102357.28
2023-02-03T22:13:41.206Z,102375.44
2023-02-03T22:16:07.687Z,102377.16
2023-02-03T22:18:34.445Z,102385.81
2023-02-03T22:21:00.914Z,102390.97
2023-02-03T22:23:27.480Z,102400.44
2023-02-03T22:25:54.150Z,102422.97
2023-02-03T22:28:20.676Z,102428.16
2023-02-03T22:30:47.906Z,102437.69
2023-02-03T22:33:14.332Z,102440.25
2023-02-03T22:35:40.706Z,102461.06
2023-02-03T22:38:07.458Z,102457.53
2023-02-03T22:40:33.845Z,102470.50
2023-02-03T22:43:00.210Z,102474.81
2023-02-03T22:45:26.633Z,102491.22
2023-02-03T22:47:53.037Z,102490.34
2023-02-03T22:50:27.139Z,102501.63
2023-02-03T22:53:02.180Z,102506.81
2023-02-03T22:55:28.629Z,102509.41
2023-02-03T22:57:55.032Z,102516.34
2023-02-03T23:00:24.071Z,102529.44
2023-02-03T23:02:50.906Z,102525.97
2023-02-03T23:05:18.570Z,102532.03
2023-02-03T23:07:45.777Z,102537.25
2023-02-03T23:10:17.188Z,102540.75
2023-02-03T23:12:43.994Z,102552.94
2023-02-03T23:15:10.455Z,102552.97
2023-02-03T23:17:36.991Z,102559.91
2023-02-03T23:20:04.545Z,102567.72
2023-02-03T23:22:31.090Z,102576.38
2023-02-03T23:24:57.619Z,102572.91
2023-02-03T23:27:23.981Z,102577.22
2023-02-03T23:29:50.529Z,102589.38
2023-02-03T23:32:16.890Z,102600.63
2023-02-03T23:35:02.296Z,102605.81
2023-02-03T23:37:28.775Z,102609.19
2023-02-03T23:39:56.200Z,102616.97
2023-02-03T23:42:22.727Z,102615.22
2023-02-03T23:44:49.159Z,102620.41
2023-02-03T23:47:15.512Z,102626.44
2023-02-03T23:49:41.901Z,102627.31
2023-02-03T23:52:08.473Z,102632.50
2023-02-03T23:54:34.839Z,102634.28
2023-02-03T23:57:02.181Z,102639.50
2023-02-03T23:59:28.511Z,102643.84
